sensor_id;sensor_type;location;lat;lon;timestamp;P1;durP1;ratioP1;P2;durP2;ratioP2
15412;SDS011;7805;49.554;7.632;2023-02-04T00:01:45;4.70;;;3.80;;
15412;SDS011;7805;49.554;7.632;2023-02-04T00:04:11;4.73;;;3.73;;
15412;SDS011;7805;49.554;7.632;2023-02-04T00:06:37;5.40;;;3.70;;
15412;SDS011;7805;49.554;7.632;2023-02-04T00:09:03;6.67;;;3.90;;
15412;SDS011;7805;49.554;7.632;2023-02-04T00:11:28;5.33;;;3.50;;
15412;SDS011;7805;49.554;7.632;2023-02-04T00:13:54;5.13;;;3.60;;
15412;SDS011;7805;49.554;7.632;2023-02-04T00:16:19;4.97;;;4.10;;
15412;SDS011;7805;49.554;7.632;2023-02-04T00:18:45;3.77;;;3.07;;
15412;SDS011;7805;49.554;7.632;2023-02-04T00:21:10;4.50;;;3.73;;
15412;SDS011;7805;49.554;7.632;2023-02-04T00:23:36;4.10;;;3.80;;
15412;SDS011;7805;49.554;7.632;2023-02-04T00:26:02;3.80;;;3.50;;
15412;SDS011;7805;49.554;7.632;2023-02-04T00:28:28;6.07;;;2.90;;
15412;SDS011;7805;49.554;7.632;2023-02-04T00:30:53;2.97;;;2.70;;
15412;SDS011;7805;49.554;7.632;2023-02-04T00:33:19;3.37;;;3.17;;
15412;SDS011;7805;49.554;7.632;2023-02-04T00:35:44;4.10;;;2.97;;
15412;SDS011;7805;49.554;7.632;2023-02-04T00:38:10;4.73;;;3.23;;
15412;SDS011;7805;49.554;7.632;2023-02-04T00:40:36;3.23;;;2.90;;
15412;SDS011;7805;49.554;7.632;2023-02-04T00:43:01;2.77;;;2.50;;
15412;SDS011;7805;49.554;7.632;2023-02-04T00:45:27;2.90;;;2.70;;
15412;SDS011;7805;49.554;7.632;2023-02-04T00:47:53;3.23;;;2.73;;
15412;SDS011;7805;49.554;7.632;2023-02-04T00:50:18;2.90;;;2.70;;
15412;SDS011;7805;49.554;7.632;2023-02-04T00:52:44;3.80;;;2.97;;
15412;SDS011;7805;49.554;7.632;2023-02-04T00:55:10;3.83;;;2.80;;
15412;SDS011;7805;49.554;7.632;2023-02-04T00:57:36;4.27;;;3.00;;
15412;SDS011;7805;49.554;7.632;2023-02-04T01:00:03;3.37;;;2.90;;
15412;SDS011;7805;49.554;7.632;2023-02-04T01:02:29;2.80;;;2.60;;
15412;SDS011;7805;49.554;7.632;2023-02-04T01:04:55;1.87;;;1.50;;
15412;SDS011;7805;49.554;7.632;2023-02-04T01:07:20;2.33;;;2.10;;
15412;SDS011;7805;49.554;7.632;2023-02-04T01:09:46;1.43;;;1.33;;
15412;SDS011;7805;49.554;7.632;2023-02-04T01:12:11;1.50;;;1.30;;
15412;SDS011;7805;49.554;7.632;2023-02-04T01:14:37;2.10;;;1.50;;
15412;SDS011;7805;49.554;7.632;2023-02-04T01:17:03;1.30;;;1.13;;
15412;SDS011;7805;49.554;7.632;2023-02-04T01:19:28;1.43;;;1.00;;
15412;SDS011;7805;49.554;7.632;2023-02-04T01:21:54;0.93;;;0.93;;
15412;SDS011;7805;49.554;7.632;2023-02-04T01:24:19;3.13;;;1.20;;
15412;SDS011;7805;49.554;7.632;2023-02-04T01:26:45;1.90;;;1.60;;
15412;SDS011;7805;49.554;7.632;2023-02-04T01:29:10;1.90;;;1.17;;
15412;SDS011;7805;49.554;7.632;2023-02-04T01:31:36;2.77;;;1.03;;
15412;SDS011;7805;49.554;7.632;2023-02-04T01:34:02;3.20;;;1.30;;
15412;SDS011;7805;49.554;7.632;2023-02-04T01:36:27;2.27;;;1.13;;
15412;SDS011;7805;49.554;7.632;2023-02-04T01:38:53;2.13;;;0.80;;
15412;SDS011;7805;49.554;7.632;2023-02-04T01:41:18;1.53;;;0.77;;
15412;SDS011;7805;49.554;7.632;2023-02-04T01:43:44;3.60;;;1.30;;
15412;SDS011;7805;49.554;7.632;2023-02-04T01:46:11;4.27;;;1.20;;
15412;SDS011;7805;49.554;7.632;2023-02-04T01:48:37;2.03;;;1.10;;
15412;SDS011;7805;49.554;7.632;2023-02-04T01:51:04;1.33;;;0.90;;
15412;SDS011;7805;49.554;7.632;2023-02-04T01:53:32;2.03;;;1.10;;
15412;SDS011;7805;49.554;7.632;2023-02-04T01:55:59;3.60;;;1.20;;
15412;SDS011;7805;49.554;7.632;2023-02-04T01:58:25;2.63;;;1.10;;
15412;SDS011;7805;49.554;7.632;2023-02-04T02:00:54;5.83;;;1.47;;
15412;SDS011;7805;49.554;7.632;2023-02-04T02:03:19;2.30;;;1.23;;
15412;SDS011;7805;49.554;7.632;2023-02-04T02:05:46;4.60;;;0.93;;
15412;SDS011;7805;49.554;7.632;2023-02-04T02:08:16;2.63;;;1.00;;
15412;SDS011;7805;49.554;7.632;2023-02-04T02:10:43;6.13;;;1.50;;
15412;SDS011;7805;49.554;7.632;2023-02-04T02:13:11;5.60;;;0.97;;
15412;SDS011;7805;49.554;7.632;2023-02-04T02:15:40;6.47;;;1.70;;
15412;SDS011;7805;49.554;7.632;2023-02-04T02:18:06;3.90;;;1.00;;
15412;SDS011;7805;49.554;7.632;2023-02-04T02:20:32;3.93;;;1.20;;
15412;SDS011;7805;49.554;7.632;2023-02-04T02:23:00;4.23;;;1.20;;
15412;SDS011;7805;49.554;7.632;2023-02-04T02:25:26;5.87;;;1.10;;
15412;SDS011;7805;49.554;7.632;2023-02-04T02:27:52;5.63;;;1.30;;
15412;SDS011;7805;49.554;7.632;2023-02-04T02:30:18;5.67;;;1.27;;
15412;SDS011;7805;49.554;7.632;2023-02-04T02:32:45;2.00;;;1.00;;
15412;SDS011;7805;49.554;7.632;2023-02-04T02:35:12;3.47;;;1.43;;
15412;SDS011;7805;49.554;7.632;2023-02-04T02:37:38;4.33;;;1.20;;
15412;SDS011;7805;49.554;7.632;2023-02-04T02:40:04;3.97;;;1.20;;
15412;SDS011;7805;49.554;7.632;2023-02-04T02:42:30;4.83;;;1.23;;
15412;SDS011;7805;49.554;7.632;2023-02-04T02:44:57;3.23;;;1.30;;
15412;SDS011;7805;49.554;7.632;2023-02-04T02:47:23;4.43;;;1.27;;
15412;SDS011;7805;49.554;7.632;2023-02-04T02:49:50;3.47;;;1.50;;
15412;SDS011;7805;49.554;7.632;2023-02-04T02:52:17;4.50;;;1.67;;
15412;SDS011;7805;49.554;7.632;2023-02-04T02:54:44;8.37;;;2.10;;
15412;SDS011;7805;49.554;7.632;2023-02-04T02:57:13;5.87;;;1.50;;
15412;SDS011;7805;49.554;7.632;2023-02-04T02:59:44;7.17;;;1.90;;
15412;SDS011;7805;49.554;7.632;2023-02-04T03:02:11;3.70;;;1.23;;
15412;SDS011;7805;49.554;7.632;2023-02-04T03:04:40;6.53;;;1.77;;
15412;SDS011;7805;49.554;7.632;2023-02-04T03:07:09;7.47;;;1.77;;
15412;SDS011;7805;49.554;7.632;2023-02-04T03:09:36;5.00;;;1.27;;
15412;SDS011;7805;49.554;7.632;2023-02-04T03:12:03;4.37;;;1.80;;
15412;SDS011;7805;49.554;7.632;2023-02-04T03:14:30;4.00;;;1.40;;
15412;SDS011;7805;49.554;7.632;2023-02-04T03:16:56;3.40;;;1.00;;
15412;SDS011;7805;49.554;7.632;2023-02-04T03:19:23;3.77;;;1.10;;
15412;SDS011;7805;49.554;7.632;2023-02-04T03:21:50;6.83;;;1.23;;
15412;SDS011;7805;49.554;7.632;2023-02-04T03:24:16;4.90;;;1.23;;
15412;SDS011;7805;49.554;7.632;2023-02-04T03:26:42;3.87;;;1.30;;
15412;SDS011;7805;49.554;7.632;2023-02-04T03:29:08;5.10;;;1.53;;
15412;SDS011;7805;49.554;7.632;2023-02-04T03:31:34;4.83;;;0.93;;
15412;SDS011;7805;49.554;7.632;2023-02-04T03:34:01;2.50;;;1.30;;
15412;SDS011;7805;49.554;7.632;2023-02-04T03:36:28;9.47;;;2.40;;
15412;SDS011;7805;49.554;7.632;2023-02-04T03:38:53;5.53;;;1.93;;
15412;SDS011;7805;49.554;7.632;2023-02-04T03:41:19;6.60;;;1.87;;
15412;SDS011;7805;49.554;7.632;2023-02-04T03:43:44;7.43;;;1.80;;
15412;SDS011;7805;49.554;7.632;2023-02-04T03:46:10;6.07;;;1.70;;
15412;SDS011;7805;49.554;7.632;2023-02-04T03:48:35;8.90;;;2.90;;
15412;SDS011;7805;49.554;7.632;2023-02-04T03:51:01;6.70;;;3.30;;
15412;SDS011;7805;49.554;7.632;2023-02-04T03:53:27;5.90;;;2.00;;
15412;SDS011;7805;49.554;7.632;2023-02-04T03:55:52;6.97;;;3.47;;
15412;SDS011;7805;49.554;7.632;2023-02-04T03:58:18;6.27;;;3.13;;
15412;SDS011;7805;49.554;7.632;2023-02-04T04:00:44;6.70;;;2.70;;
15412;SDS011;7805;49.554;7.632;2023-02-04T04:03:09;6.17;;;2.13;;
15412;SDS011;7805;49.554;7.632;2023-02-04T04:05:35;5.80;;;2.70;;
15412;SDS011;7805;49.554;7.632;2023-02-04T04:08:00;7.80;;;3.13;;
15412;SDS011;7805;49.554;7.632;2023-02-04T04:10:26;9.23;;;3.30;;
15412;SDS011;7805;49.554;7.632;2023-02-04T04:12:53;8.13;;;3.20;;
15412;SDS011;7805;49.554;7.632;2023-02-04T04:15:19;9.37;;;3.40;;
15412;SDS011;7805;49.554;7.632;2023-02-04T04:17:45;6.67;;;2.30;;
15412;SDS011;7805;49.554;7.632;2023-02-04T04:20:10;8.90;;;3.70;;
15412;SDS011;7805;49.554;7.632;2023-02-04T04:22:36;13.00;;;6.83;;
15412;SDS011;7805;49.554;7.632;2023-02-04T04:25:01;7.97;;;3.87;;
15412;SDS011;7805;49.554;7.632;2023-02-04T04:27:27;11.20;;;5.00;;
15412;SDS011;7805;49.554;7.632;2023-02-04T04:29:54;10.60;;;4.57;;
15412;SDS011;7805;49.554;7.632;2023-02-04T04:32:19;11.37;;;5.33;;
15412;SDS011;7805;49.554;7.632;2023-02-04T04:34:45;23.97;;;11.33;;
15412;SDS011;7805;49.554;7.632;2023-02-04T04:37:11;23.93;;;9.23;;
15412;SDS011;7805;49.554;7.632;2023-02-04T04:39:36;17.77;;;8.13;;
15412;SDS011;7805;49.554;7.632;2023-02-04T04:42:02;11.67;;;6.80;;
15412;SDS011;7805;49.554;7.632;2023-02-04T04:44:28;12.07;;;6.23;;
15412;SDS011;7805;49.554;7.632;2023-02-04T04:46:53;7.10;;;4.23;;
15412;SDS011;7805;49.554;7.632;2023-02-04T04:49:19;5.50;;;2.50;;
15412;SDS011;7805;49.554;7.632;2023-02-04T04:51:44;3.40;;;1.90;;
15412;SDS011;7805;49.554;7.632;2023-02-04T04:54:10;4.13;;;1.80;;
15412;SDS011;7805;49.554;7.632;2023-02-04T04:56:36;9.40;;;1.87;;
15412;SDS011;7805;49.554;7.632;2023-02-04T04:59:01;6.30;;;2.17;;
15412;SDS011;7805;49.554;7.632;2023-02-04T05:01:27;2.50;;;1.70;;
15412;SDS011;7805;49.554;7.632;2023-02-04T05:03:53;12.13;;;3.40;;
15412;SDS011;7805;49.554;7.632;2023-02-04T05:06:18;15.10;;;7.00;;
15412;SDS011;7805;49.554;7.632;2023-02-04T05:08:49;24.40;;;10.23;;
15412;SDS011;7805;49.554;7.632;2023-02-04T05:11:18;18.57;;;7.47;;
15412;SDS011;7805;49.554;7.632;2023-02-04T05:13:44;15.70;;;7.20;;
15412;SDS011;7805;49.554;7.632;2023-02-04T05:16:09;9.77;;;5.23;;
15412;SDS011;7805;49.554;7.632;2023-02-04T05:18:39;12.17;;;5.20;;
15412;SDS011;7805;49.554;7.632;2023-02-04T05:21:04;10.37;;;4.07;;
15412;SDS011;7805;49.554;7.632;2023-02-04T05:23:30;5.90;;;3.07;;
15412;SDS011;7805;49.554;7.632;2023-02-04T05:25:56;6.30;;;2.67;;
15412;SDS011;7805;49.554;7.632;2023-02-04T05:28:22;6.10;;;2.63;;
15412;SDS011;7805;49.554;7.632;2023-02-04T05:30:47;11.20;;;3.00;;
15412;SDS011;7805;49.554;7.632;2023-02-04T05:33:13;11.90;;;5.80;;
15412;SDS011;7805;49.554;7.632;2023-02-04T05:35:38;8.87;;;4.63;;
15412;SDS011;7805;49.554;7.632;2023-02-04T05:38:04;8.20;;;3.73;;
15412;SDS011;7805;49.554;7.632;2023-02-04T05:40:30;7.60;;;3.07;;
15412;SDS011;7805;49.554;7.632;2023-02-04T05:42:55;5.90;;;3.00;;
15412;SDS011;7805;49.554;7.632;2023-02-04T05:45:21;5.97;;;2.80;;
15412;SDS011;7805;49.554;7.632;2023-02-04T05:47:46;6.33;;;2.77;;
15412;SDS011;7805;49.554;7.632;2023-02-04T05:50:12;9.70;;;3.27;;
15412;SDS011;7805;49.554;7.632;2023-02-04T05:52:38;6.80;;;3.17;;
15412;SDS011;7805;49.554;7.632;2023-02-04T05:55:04;7.47;;;2.67;;
15412;SDS011;7805;49.554;7.632;2023-02-04T05:57:30;5.30;;;2.40;;
15412;SDS011;7805;49.554;7.632;2023-02-04T05:59:56;8.77;;;3.43;;
15412;SDS011;7805;49.554;7.632;2023-02-04T06:02:21;7.03;;;3.00;;
15412;SDS011;7805;49.554;7.632;2023-02-04T06:04:47;7.23;;;3.47;;
15412;SDS011;7805;49.554;7.632;2023-02-04T06:07:13;8.03;;;2.63;;
15412;SDS011;7805;49.554;7.632;2023-02-04T06:09:38;8.33;;;4.03;;
15412;SDS011;7805;49.554;7.632;2023-02-04T06:12:04;16.67;;;10.00;;
15412;SDS011;7805;49.554;7.632;2023-02-04T06:14:29;12.00;;;6.47;;
15412;SDS011;7805;49.554;7.632;2023-02-04T06:16:55;8.67;;;4.00;;
15412;SDS011;7805;49.554;7.632;2023-02-04T06:19:20;6.83;;;3.13;;
15412;SDS011;7805;49.554;7.632;2023-02-04T06:21:46;11.13;;;6.00;;
15412;SDS011;7805;49.554;7.632;2023-02-04T06:24:12;14.23;;;7.37;;
15412;SDS011;7805;49.554;7.632;2023-02-04T06:26:37;13.43;;;5.30;;
15412;SDS011;7805;49.554;7.632;2023-02-04T06:29:03;12.37;;;6.17;;
15412;SDS011;7805;49.554;7.632;2023-02-04T06:31:28;12.80;;;5.33;;
15412;SDS011;7805;49.554;7.632;2023-02-04T06:33:54;7.53;;;3.77;;
15412;SDS011;7805;49.554;7.632;2023-02-04T06:36:19;5.90;;;2.60;;
15412;SDS011;7805;49.554;7.632;2023-02-04T06:38:45;4.93;;;2.43;;
15412;SDS011;7805;49.554;7.632;2023-02-04T06:41:11;5.13;;;2.37;;
15412;SDS011;7805;49.554;7.632;2023-02-04T06:43:36;7.03;;;2.67;;
15412;SDS011;7805;49.554;7.632;2023-02-04T06:46:02;4.27;;;2.30;;
15412;SDS011;7805;49.554;7.632;2023-02-04T06:48:27;7.90;;;4.00;;
15412;SDS011;7805;49.554;7.632;2023-02-04T06:50:53;6.27;;;4.10;;
15412;SDS011;7805;49.554;7.632;2023-02-04T06:53:18;12.00;;;5.50;;
15412;SDS011;7805;49.554;7.632;2023-02-04T06:55:44;12.60;;;6.50;;
15412;SDS011;7805;49.554;7.632;2023-02-04T06:58:09;10.90;;;5.47;;
15412;SDS011;7805;49.554;7.632;2023-02-04T07:00:35;16.53;;;11.77;;
15412;SDS011;7805;49.554;7.632;2023-02-04T07:03:00;20.00;;;15.63;;
15412;SDS011;7805;49.554;7.632;2023-02-04T07:05:26;13.47;;;9.97;;
15412;SDS011;7805;49.554;7.632;2023-02-04T07:07:52;16.60;;;9.13;;
15412;SDS011;7805;49.554;7.632;2023-02-04T07:10:17;10.87;;;8.40;;
15412;SDS011;7805;49.554;7.632;2023-02-04T07:12:44;14.77;;;10.53;;
15412;SDS011;7805;49.554;7.632;2023-02-04T07:15:10;12.47;;;8.87;;
15412;SDS011;7805;49.554;7.632;2023-02-04T07:17:36;13.47;;;8.40;;
15412;SDS011;7805;49.554;7.632;2023-02-04T07:20:01;11.60;;;8.60;;
15412;SDS011;7805;49.554;7.632;2023-02-04T07:22:27;16.23;;;11.27;;
15412;SDS011;7805;49.554;7.632;2023-02-04T07:24:53;21.90;;;14.90;;
15412;SDS011;7805;49.554;7.632;2023-02-04T07:27:18;22.07;;;14.70;;
15412;SDS011;7805;49.554;7.632;2023-02-04T07:29:44;18.70;;;11.63;;
15412;SDS011;7805;49.554;7.632;2023-02-04T07:32:09;15.63;;;10.80;;
15412;SDS011;7805;49.554;7.632;2023-02-04T07:34:35;11.90;;;9.10;;
15412;SDS011;7805;49.554;7.632;2023-02-04T07:37:01;14.00;;;8.13;;
15412;SDS011;7805;49.554;7.632;2023-02-04T07:39:26;9.93;;;6.57;;
15412;SDS011;7805;49.554;7.632;2023-02-04T07:41:52;11.77;;;5.87;;
15412;SDS011;7805;49.554;7.632;2023-02-04T07:44:17;8.73;;;4.70;;
15412;SDS011;7805;49.554;7.632;2023-02-04T07:46:43;6.83;;;4.73;;
15412;SDS011;7805;49.554;7.632;2023-02-04T07:49:08;8.97;;;4.80;;
15412;SDS011;7805;49.554;7.632;2023-02-04T07:51:34;7.17;;;5.63;;
15412;SDS011;7805;49.554;7.632;2023-02-04T07:53:59;10.33;;;7.07;;
15412;SDS011;7805;49.554;7.632;2023-02-04T07:56:25;9.87;;;7.37;;
15412;SDS011;7805;49.554;7.632;2023-02-04T07:58:51;8.63;;;7.23;;
15412;SDS011;7805;49.554;7.632;2023-02-04T08:01:16;11.73;;;6.50;;
15412;SDS011;7805;49.554;7.632;2023-02-04T08:03:42;7.73;;;6.97;;
15412;SDS011;7805;49.554;7.632;2023-02-04T08:06:08;7.43;;;5.50;;
15412;SDS011;7805;49.554;7.632;2023-02-04T08:08:34;7.30;;;5.50;;
15412;SDS011;7805;49.554;7.632;2023-02-04T08:10:59;7.67;;;6.03;;
15412;SDS011;7805;49.554;7.632;2023-02-04T08:13:25;10.50;;;5.93;;
15412;SDS011;7805;49.554;7.632;2023-02-04T08:15:50;8.97;;;6.00;;
15412;SDS011;7805;49.554;7.632;2023-02-04T08:18:16;10.37;;;6.47;;
15412;SDS011;7805;49.554;7.632;2023-02-04T08:20:42;6.17;;;5.43;;
15412;SDS011;7805;49.554;7.632;2023-02-04T08:23:07;9.83;;;7.03;;
15412;SDS011;7805;49.554;7.632;2023-02-04T08:25:33;11.43;;;7.63;;
15412;SDS011;7805;49.554;7.632;2023-02-04T08:27:59;9.67;;;8.00;;
15412;SDS011;7805;49.554;7.632;2023-02-04T08:30:24;10.13;;;6.10;;
15412;SDS011;7805;49.554;7.632;2023-02-04T08:32:50;8.77;;;5.90;;
15412;SDS011;7805;49.554;7.632;2023-02-04T08:35:15;9.83;;;4.57;;
15412;SDS011;7805;49.554;7.632;2023-02-04T08:37:41;8.20;;;4.60;;
15412;SDS011;7805;49.554;7.632;2023-02-04T08:40:07;5.77;;;4.00;;
15412;SDS011;7805;49.554;7.632;2023-02-04T08:42:33;4.23;;;3.30;;
15412;SDS011;7805;49.554;7.632;2023-02-04T08:44:58;8.10;;;3.60;;
15412;SDS011;7805;49.554;7.632;2023-02-04T08:47:28;5.80;;;3.37;;
15412;SDS011;7805;49.554;7.632;2023-02-04T08:49:53;5.70;;;3.17;;
15412;SDS011;7805;49.554;7.632;2023-02-04T08:52:19;5.97;;;3.60;;
15412;SDS011;7805;49.554;7.632;2023-02-04T08:54:45;7.53;;;3.97;;
15412;SDS011;7805;49.554;7.632;2023-02-04T08:57:10;7.97;;;3.50;;
15412;SDS011;7805;49.554;7.632;2023-02-04T08:59:36;6.87;;;3.00;;
15412;SDS011;7805;49.554;7.632;2023-02-04T09:02:01;6.40;;;3.13;;
15412;SDS011;7805;49.554;7.632;2023-02-04T09:04:27;5.87;;;3.53;;
15412;SDS011;7805;49.554;7.632;2023-02-04T09:06:53;6.90;;;2.93;;
15412;SDS011;7805;49.554;7.632;2023-02-04T09:09:19;6.60;;;2.80;;
15412;SDS011;7805;49.554;7.632;2023-02-04T09:11:45;8.53;;;2.83;;
15412;SDS011;7805;49.554;7.632;2023-02-04T09:14:11;4.30;;;3.07;;
15412;SDS011;7805;49.554;7.632;2023-02-04T09:16:36;9.47;;;3.20;;
15412;SDS011;7805;49.554;7.632;2023-02-04T09:19:02;10.47;;;3.70;;
15412;SDS011;7805;49.554;7.632;2023-02-04T09:21:30;9.77;;;3.93;;
15412;SDS011;7805;49.554;7.632;2023-02-04T09:23:55;9.03;;;4.57;;
15412;SDS011;7805;49.554;7.632;2023-02-04T09:26:21;7.63;;;4.73;;
15412;SDS011;7805;49.554;7.632;2023-02-04T09:28:47;9.07;;;3.60;;
15412;SDS011;7805;49.554;7.632;2023-02-04T09:31:13;8.20;;;4.60;;
15412;SDS011;7805;49.554;7.632;2023-02-04T09:33:39;8.03;;;4.60;;
15412;SDS011;7805;49.554;7.632;2023-02-04T09:36:05;11.47;;;4.13;;
15412;SDS011;7805;49.554;7.632;2023-02-04T09:38:31;8.93;;;5.23;;
15412;SDS011;7805;49.554;7.632;2023-02-04T09:40:57;8.70;;;4.13;;
15412;SDS011;7805;49.554;7.632;2023-02-04T09:43:30;8.97;;;4.87;;
15412;SDS011;7805;49.554;7.632;2023-02-04T09:45:59;8.53;;;3.50;;
15412;SDS011;7805;49.554;7.632;2023-02-04T09:48:25;8.47;;;3.33;;
15412;SDS011;7805;49.554;7.632;2023-02-04T09:50:51;16.07;;;7.33;;
15412;SDS011;7805;49.554;7.632;2023-02-04T09:53:22;11.33;;;5.67;;
15412;SDS011;7805;49.554;7.632;2023-02-04T09:55:49;11.70;;;5.50;;
15412;SDS011;7805;49.554;7.632;2023-02-04T09:58:17;9.50;;;4.83;;
15412;SDS011;7805;49.554;7.632;2023-02-04T10:00:45;15.10;;;4.90;;
15412;SDS011;7805;49.554;7.632;2023-02-04T10:03:16;11.07;;;4.57;;
15412;SDS011;7805;49.554;7.632;2023-02-04T10:05:44;10.13;;;4.10;;
15412;SDS011;7805;49.554;7.632;2023-02-04T10:08:12;16.60;;;5.20;;
15412;SDS011;7805;49.554;7.632;2023-02-04T10:10:39;16.90;;;6.20;;
15412;SDS011;7805;49.554;7.632;2023-02-04T10:13:07;11.57;;;5.47;;
15412;SDS011;7805;49.554;7.632;2023-02-04T10:15:40;11.70;;;4.57;;
15412;SDS011;7805;49.554;7.632;2023-02-04T10:18:05;11.40;;;5.23;;
15412;SDS011;7805;49.554;7.632;2023-02-04T10:20:32;14.57;;;5.40;;
15412;SDS011;7805;49.554;7.632;2023-02-04T10:22:58;10.23;;;4.70;;
15412;SDS011;7805;49.554;7.632;2023-02-04T10:25:24;18.40;;;7.20;;
15412;SDS011;7805;49.554;7.632;2023-02-04T10:27:54;14.17;;;5.97;;
15412;SDS011;7805;49.554;7.632;2023-02-04T10:30:27;14.77;;;6.43;;
15412;SDS011;7805;49.554;7.632;2023-02-04T10:33:21;12.30;;;5.47;;
15412;SDS011;7805;49.554;7.632;2023-02-04T10:35:49;13.27;;;5.90;;
15412;SDS011;7805;49.554;7.632;2023-02-04T10:38:17;13.63;;;4.63;;
15412;SDS011;7805;49.554;7.632;2023-02-04T10:40:43;14.03;;;5.00;;
15412;SDS011;7805;49.554;7.632;2023-02-04T10:43:31;11.43;;;4.57;;
15412;SDS011;7805;49.554;7.632;2023-02-04T10:46:02;13.53;;;5.30;;
15412;SDS011;7805;49.554;7.632;2023-02-04T10:48:28;15.13;;;5.73;;
15412;SDS011;7805;49.554;7.632;2023-02-04T10:51:03;17.47;;;5.23;;
15412;SDS011;7805;49.554;7.632;2023-02-04T10:53:28;17.73;;;5.13;;
15412;SDS011;7805;49.554;7.632;2023-02-04T10:56:17;12.93;;;4.30;;
15412;SDS011;7805;49.554;7.632;2023-02-04T10:58:45;16.10;;;5.37;;
15412;SDS011;7805;49.554;7.632;2023-02-04T11:01:12;14.50;;;5.87;;
15412;SDS011;7805;49.554;7.632;2023-02-04T11:03:39;18.97;;;5.47;;
15412;SDS011;7805;49.554;7.632;2023-02-04T11:06:23;9.40;;;4.63;;
15412;SDS011;7805;49.554;7.632;2023-02-04T11:08:49;14.87;;;5.33;;
15412;SDS011;7805;49.554;7.632;2023-02-04T11:16:11;15.17;;;5.77;;
15412;SDS011;7805;49.554;7.632;2023-02-04T11:21:12;16.53;;;8.27;;
15412;SDS011;7805;49.554;7.632;2023-02-04T11:23:45;14.37;;;6.10;;
15412;SDS011;7805;49.554;7.632;2023-02-04T11:26:12;12.17;;;5.00;;
15412;SDS011;7805;49.554;7.632;2023-02-04T11:33:46;16.93;;;7.33;;
15412;SDS011;7805;49.554;7.632;2023-02-04T11:36:14;16.97;;;6.43;;
15412;SDS011;7805;49.554;7.632;2023-02-04T11:38:47;13.43;;;6.73;;
15412;SDS011;7805;49.554;7.632;2023-02-04T11:41:14;13.20;;;5.40;;
15412;SDS011;7805;49.554;7.632;2023-02-04T11:43:49;14.00;;;5.33;;
15412;SDS011;7805;49.554;7.632;2023-02-04T11:46:16;16.07;;;6.70;;
15412;SDS011;7805;49.554;7.632;2023-02-04T11:48:42;17.90;;;6.53;;
15412;SDS011;7805;49.554;7.632;2023-02-04T11:51:10;20.60;;;8.33;;
15412;SDS011;7805;49.554;7.632;2023-02-04T11:53:38;11.67;;;5.40;;
15412;SDS011;7805;49.554;7.632;2023-02-04T11:56:04;11.17;;;4.70;;
15412;SDS011;7805;49.554;7.632;2023-02-04T11:58:30;13.07;;;5.20;;
15412;SDS011;7805;49.554;7.632;2023-02-04T12:00:56;10.23;;;4.00;;
15412;SDS011;7805;49.554;7.632;2023-02-04T12:05:54;11.70;;;3.67;;
15412;SDS011;7805;49.554;7.632;2023-02-04T12:10:47;9.53;;;4.10;;
15412;SDS011;7805;49.554;7.632;2023-02-04T12:13:22;12.77;;;4.60;;
15412;SDS011;7805;49.554;7.632;2023-02-04T12:15:59;14.73;;;5.10;;
15412;SDS011;7805;49.554;7.632;2023-02-04T12:18:26;12.23;;;4.90;;
15412;SDS011;7805;49.554;7.632;2023-02-04T12:20:56;14.97;;;4.63;;
15412;SDS011;7805;49.554;7.632;2023-02-04T12:23:23;9.60;;;4.90;;
15412;SDS011;7805;49.554;7.632;2023-02-04T12:25:49;11.43;;;4.00;;
15412;SDS011;7805;49.554;7.632;2023-02-04T12:28:15;14.50;;;4.30;;
15412;SDS011;7805;49.554;7.632;2023-02-04T12:30:41;13.67;;;4.17;;
15412;SDS011;7805;49.554;7.632;2023-02-04T12:33:07;14.43;;;4.93;;
15412;SDS011;7805;49.554;7.632;2023-02-04T12:35:33;16.67;;;4.67;;
15412;SDS011;7805;49.554;7.632;2023-02-04T12:37:59;11.63;;;4.43;;
15412;SDS011;7805;49.554;7.632;2023-02-04T12:40:25;12.53;;;4.60;;
15412;SDS011;7805;49.554;7.632;2023-02-04T12:42:50;14.83;;;6.10;;
15412;SDS011;7805;49.554;7.632;2023-02-04T12:45:16;15.07;;;4.97;;
15412;SDS011;7805;49.554;7.632;2023-02-04T12:47:42;17.60;;;7.77;;
15412;SDS011;7805;49.554;7.632;2023-02-04T12:50:12;13.77;;;4.77;;
15412;SDS011;7805;49.554;7.632;2023-02-04T12:52:39;8.33;;;4.00;;
15412;SDS011;7805;49.554;7.632;2023-02-04T12:55:06;11.97;;;3.70;;
15412;SDS011;7805;49.554;7.632;2023-02-04T12:57:32;8.67;;;3.40;;
15412;SDS011;7805;49.554;7.632;2023-02-04T12:59:59;13.53;;;4.80;;
15412;SDS011;7805;49.554;7.632;2023-02-04T13:02:26;11.47;;;3.60;;
15412;SDS011;7805;49.554;7.632;2023-02-04T13:04:52;11.27;;;4.20;;
15412;SDS011;7805;49.554;7.632;2023-02-04T13:07:18;11.17;;;4.13;;
15412;SDS011;7805;49.554;7.632;2023-02-04T13:09:45;15.17;;;6.13;;
15412;SDS011;7805;49.554;7.632;2023-02-04T13:12:12;11.03;;;3.87;;
15412;SDS011;7805;49.554;7.632;2023-02-04T13:14:39;11.40;;;4.73;;
15412;SDS011;7805;49.554;7.632;2023-02-04T13:17:05;15.33;;;4.40;;
15412;SDS011;7805;49.554;7.632;2023-02-04T13:19:31;12.60;;;3.63;;
15412;SDS011;7805;49.554;7.632;2023-02-04T13:21:57;9.07;;;3.40;;
15412;SDS011;7805;49.554;7.632;2023-02-04T13:24:23;8.67;;;3.50;;
15412;SDS011;7805;49.554;7.632;2023-02-04T13:26:49;10.73;;;3.77;;
15412;SDS011;7805;49.554;7.632;2023-02-04T13:29:14;13.00;;;4.50;;
15412;SDS011;7805;49.554;7.632;2023-02-04T13:31:40;11.13;;;3.80;;
15412;SDS011;7805;49.554;7.632;2023-02-04T13:34:06;10.57;;;3.97;;
15412;SDS011;7805;49.554;7.632;2023-02-04T13:36:31;16.23;;;5.27;;
15412;SDS011;7805;49.554;7.632;2023-02-04T13:38:57;15.63;;;6.83;;
15412;SDS011;7805;49.554;7.632;2023-02-04T13:41:24;13.63;;;5.27;;
15412;SDS011;7805;49.554;7.632;2023-02-04T13:43:50;10.97;;;4.20;;
15412;SDS011;7805;49.554;7.632;2023-02-04T13:46:16;13.73;;;4.30;;
15412;SDS011;7805;49.554;7.632;2023-02-04T13:48:42;13.70;;;3.73;;
15412;SDS011;7805;49.554;7.632;2023-02-04T13:51:07;9.53;;;4.67;;
15412;SDS011;7805;49.554;7.632;2023-02-04T13:53:33;11.03;;;3.80;;
15412;SDS011;7805;49.554;7.632;2023-02-04T13:55:59;15.50;;;6.57;;
15412;SDS011;7805;49.554;7.632;2023-02-04T13:58:25;12.20;;;4.17;;
15412;SDS011;7805;49.554;7.632;2023-02-04T14:00:51;12.37;;;4.57;;
15412;SDS011;7805;49.554;7.632;2023-02-04T14:03:21;12.40;;;4.57;;
15412;SDS011;7805;49.554;7.632;2023-02-04T14:05:48;8.30;;;3.95;;
15412;SDS011;7805;49.554;7.632;2023-02-04T14:08:13;14.70;;;6.38;;
15412;SDS011;7805;49.554;7.632;2023-02-04T14:10:39;8.65;;;3.72;;
15412;SDS011;7805;49.554;7.632;2023-02-04T14:13:04;10.35;;;3.65;;
15412;SDS011;7805;49.554;7.632;2023-02-04T14:15:30;11.38;;;3.55;;
15412;SDS011;7805;49.554;7.632;2023-02-04T14:17:58;9.38;;;3.35;;
15412;SDS011;7805;49.554;7.632;2023-02-04T14:20:24;9.68;;;3.50;;
15412;SDS011;7805;49.554;7.632;2023-02-04T14:22:50;9.77;;;3.42;;
15412;SDS011;7805;49.554;7.632;2023-02-04T14:25:15;10.05;;;3.38;;
15412;SDS011;7805;49.554;7.632;2023-02-04T14:27:41;9.55;;;3.78;;
15412;SDS011;7805;49.554;7.632;2023-02-04T14:30:09;9.18;;;3.55;;
15412;SDS011;7805;49.554;7.632;2023-02-04T14:32:44;12.88;;;3.40;;
15412;SDS011;7805;49.554;7.632;2023-02-04T14:35:10;8.25;;;3.80;;
15412;SDS011;7805;49.554;7.632;2023-02-04T14:37:35;9.77;;;3.63;;
15412;SDS011;7805;49.554;7.632;2023-02-04T14:40:01;9.13;;;3.10;;
15412;SDS011;7805;49.554;7.632;2023-02-04T14:42:27;13.18;;;3.53;;
15412;SDS011;7805;49.554;7.632;2023-02-04T14:44:52;9.55;;;3.97;;
15412;SDS011;7805;49.554;7.632;2023-02-04T14:47:18;8.23;;;3.30;;
15412;SDS011;7805;49.554;7.632;2023-02-04T14:49:43;11.52;;;4.45;;
15412;SDS011;7805;49.554;7.632;2023-02-04T14:52:09;10.98;;;3.85;;
15412;SDS011;7805;49.554;7.632;2023-02-04T14:54:36;14.40;;;3.88;;
15412;SDS011;7805;49.554;7.632;2023-02-04T14:57:02;10.05;;;3.85;;
15412;SDS011;7805;49.554;7.632;2023-02-04T14:59:27;8.85;;;3.78;;
15412;SDS011;7805;49.554;7.632;2023-02-04T15:01:53;11.43;;;3.87;;
15412;SDS011;7805;49.554;7.632;2023-02-04T15:04:18;11.63;;;3.87;;
15412;SDS011;7805;49.554;7.632;2023-02-04T15:06:44;8.80;;;3.80;;
15412;SDS011;7805;49.554;7.632;2023-02-04T15:09:10;11.33;;;4.47;;